sensor_id;sensor_type;location;lat;lon;timestamp;P1;durP1;ratioP1;P2;durP2;ratioP2
68951;SDS011;56000;51.146;17.112;2023-04-01T00:02:26;4.10;;;2.10;;
68951;SDS011;56000;51.146;17.112;2023-04-01T00:05:00;5.90;;;2.70;;
68951;SDS011;56000;51.146;17.112;2023-04-01T00:07:33;6.30;;;3.20;;
68951;SDS011;56000;51.146;17.112;2023-04-01T00:10:09;5.90;;;2.80;;
68951;SDS011;56000;51.146;17.112;2023-04-01T00:12:42;4.90;;;3.00;;
68951;SDS011;56000;51.146;17.112;2023-04-01T00:15:16;5.60;;;2.90;;
68951;SDS011;56000;51.146;17.112;2023-04-01T00:17:49;6.50;;;3.20;;
68951;SDS011;56000;51.146;17.112;2023-04-01T00:20:22;7.50;;;3.30;;
68951;SDS011;56000;51.146;17.112;2023-04-01T00:22:55;5.80;;;2.60;;
68951;SDS011;56000;51.146;17.112;2023-04-01T00:25:28;6.20;;;3.10;;
68951;SDS011;56000;51.146;17.112;2023-04-01T00:28:02;7.30;;;3.80;;
68951;SDS011;56000;51.146;17.112;2023-04-01T00:30:36;6.10;;;3.40;;
68951;SDS011;56000;51.146;17.112;2023-04-01T00:33:10;5.50;;;3.30;;
68951;SDS011;56000;51.146;17.112;2023-04-01T00:35:43;6.50;;;3.40;;
68951;SDS011;56000;51.146;17.112;2023-04-01T00:38:17;6.00;;;3.70;;
68951;SDS011;56000;51.146;17.112;2023-04-01T00:40:50;6.60;;;3.30;;
68951;SDS011;56000;51.146;17.112;2023-04-01T00:43:30;6.90;;;4.00;;
68951;SDS011;56000;51.146;17.112;2023-04-01T00:46:04;11.10;;;4.50;;
68951;SDS011;56000;51.146;17.112;2023-04-01T00:48:38;6.90;;;4.40;;
68951;SDS011;56000;51.146;17.112;2023-04-01T00:51:15;7.50;;;4.90;;
68951;SDS011;56000;51.146;17.112;2023-04-01T00:53:54;8.20;;;4.60;;
68951;SDS011;56000;51.146;17.112;2023-04-01T00:56:33;9.30;;;4.50;;
68951;SDS011;56000;51.146;17.112;2023-04-01T00:59:11;10.70;;;5.70;;
68951;SDS011;56000;51.146;17.112;2023-04-01T01:01:49;11.30;;;5.70;;
68951;SDS011;56000;51.146;17.112;2023-04-01T01:04:27;7.00;;;5.20;;
68951;SDS011;56000;51.146;17.112;2023-04-01T01:07:09;8.60;;;5.30;;
68951;SDS011;56000;51.146;17.112;2023-04-01T01:09:50;8.20;;;4.60;;
68951;SDS011;56000;51.146;17.112;2023-04-01T01:12:35;6.30;;;4.60;;
68951;SDS011;56000;51.146;17.112;2023-04-01T01:15:17;14.30;;;6.00;;
68951;SDS011;56000;51.146;17.112;2023-04-01T01:17:58;7.20;;;5.30;;
68951;SDS011;56000;51.146;17.112;2023-04-01T01:21:03;11.00;;;5.90;;
68951;SDS011;56000;51.146;17.112;2023-04-01T01:27:04;8.90;;;4.70;;
68951;SDS011;56000;51.146;17.112;2023-04-01T01:36:01;10.50;;;6.20;;
68951;SDS011;56000;51.146;17.112;2023-04-01T01:38:36;12.00;;;6.80;;
68951;SDS011;56000;51.146;17.112;2023-04-01T01:41:11;8.20;;;5.10;;
68951;SDS011;56000;51.146;17.112;2023-04-01T01:43:48;15.90;;;7.10;;
68951;SDS011;56000;51.146;17.112;2023-04-01T01:46:26;10.30;;;6.70;;
68951;SDS011;56000;51.146;17.112;2023-04-01T01:49:00;9.70;;;7.20;;
68951;SDS011;56000;51.146;17.112;2023-04-01T01:51:36;13.10;;;7.30;;
68951;SDS011;56000;51.146;17.112;2023-04-01T01:54:14;13.00;;;6.50;;
68951;SDS011;56000;51.146;17.112;2023-04-01T01:56:49;10.20;;;5.90;;
68951;SDS011;56000;51.146;17.112;2023-04-01T01:59:28;9.20;;;5.60;;
68951;SDS011;56000;51.146;17.112;2023-04-01T02:02:03;7.50;;;4.50;;
68951;SDS011;56000;51.146;17.112;2023-04-01T02:04:41;9.50;;;4.60;;
68951;SDS011;56000;51.146;17.112;2023-04-01T02:07:18;8.20;;;5.30;;
68951;SDS011;56000;51.146;17.112;2023-04-01T02:09:54;10.10;;;5.20;;
68951;SDS011;56000;51.146;17.112;2023-04-01T02:12:28;6.90;;;4.80;;
68951;SDS011;56000;51.146;17.112;2023-04-01T02:15:03;8.50;;;5.00;;
68951;SDS011;56000;51.146;17.112;2023-04-01T02:17:42;11.50;;;5.80;;
68951;SDS011;56000;51.146;17.112;2023-04-01T02:20:19;9.70;;;5.20;;
68951;SDS011;56000;51.146;17.112;2023-04-01T02:22:54;8.10;;;5.20;;
68951;SDS011;56000;51.146;17.112;2023-04-01T02:25:30;9.30;;;5.30;;
68951;SDS011;56000;51.146;17.112;2023-04-01T02:28:07;10.70;;;5.30;;
68951;SDS011;56000;51.146;17.112;2023-04-01T02:30:43;8.40;;;5.30;;
68951;SDS011;56000;51.146;17.112;2023-04-01T02:33:18;10.60;;;5.70;;
68951;SDS011;56000;51.146;17.112;2023-04-01T02:35:52;11.30;;;4.80;;
68951;SDS011;56000;51.146;17.112;2023-04-01T02:38:25;9.60;;;4.60;;
68951;SDS011;56000;51.146;17.112;2023-04-01T02:41:00;6.70;;;4.70;;
68951;SDS011;56000;51.146;17.112;2023-04-01T02:43:35;6.10;;;4.30;;
68951;SDS011;56000;51.146;17.112;2023-04-01T02:46:08;6.90;;;3.80;;
68951;SDS011;56000;51.146;17.112;2023-04-01T02:48:41;8.30;;;4.60;;
68951;SDS011;56000;51.146;17.112;2023-04-01T02:51:14;7.90;;;4.10;;
68951;SDS011;56000;51.146;17.112;2023-04-01T02:53:48;6.90;;;4.60;;
68951;SDS011;56000;51.146;17.112;2023-04-01T02:56:21;7.80;;;4.20;;
68951;SDS011;56000;51.146;17.112;2023-04-01T02:58:54;9.20;;;4.10;;
68951;SDS011;56000;51.146;17.112;2023-04-01T03:01:27;6.20;;;4.20;;
68951;SDS011;56000;51.146;17.112;2023-04-01T03:04:00;9.80;;;4.50;;
68951;SDS011;56000;51.146;17.112;2023-04-01T03:06:33;5.80;;;3.90;;
68951;SDS011;56000;51.146;17.112;2023-04-01T03:09:07;5.40;;;3.60;;
68951;SDS011;56000;51.146;17.112;2023-04-01T03:11:40;6.90;;;3.60;;
68951;SDS011;56000;51.146;17.112;2023-04-01T03:14:13;6.40;;;3.40;;
68951;SDS011;56000;51.146;17.112;2023-04-01T03:16:46;5.30;;;2.70;;
68951;SDS011;56000;51.146;17.112;2023-04-01T03:19:20;4.00;;;2.60;;
68951;SDS011;56000;51.146;17.112;2023-04-01T03:21:53;11.40;;;3.20;;
68951;SDS011;56000;51.146;17.112;2023-04-01T03:24:26;6.40;;;3.40;;
68951;SDS011;56000;51.146;17.112;2023-04-01T03:26:59;5.60;;;3.20;;
68951;SDS011;56000;51.146;17.112;2023-04-01T03:29:32;5.30;;;2.70;;
68951;SDS011;56000;51.146;17.112;2023-04-01T03:32:06;6.30;;;2.60;;
68951;SDS011;56000;51.146;17.112;2023-04-01T03:34:39;4.10;;;3.10;;
68951;SDS011;56000;51.146;17.112;2023-04-01T03:37:12;5.40;;;2.90;;
68951;SDS011;56000;51.146;17.112;2023-04-01T03:39:45;7.10;;;2.50;;
68951;SDS011;56000;51.146;17.112;2023-04-01T03:42:19;5.70;;;2.40;;
68951;SDS011;56000;51.146;17.112;2023-04-01T03:44:52;6.60;;;2.90;;
68951;SDS011;56000;51.146;17.112;2023-04-01T03:47:25;2.90;;;2.30;;
68951;SDS011;56000;51.146;17.112;2023-04-01T03:49:58;10.60;;;3.00;;
68951;SDS011;56000;51.146;17.112;2023-04-01T03:52:32;8.60;;;3.00;;
68951;SDS011;56000;51.146;17.112;2023-04-01T03:55:06;4.70;;;2.90;;
68951;SDS011;56000;51.146;17.112;2023-04-01T03:57:40;4.80;;;2.70;;
68951;SDS011;56000;51.146;17.112;2023-04-01T04:00:18;5.80;;;3.00;;
68951;SDS011;56000;51.146;17.112;2023-04-01T04:02:53;4.10;;;2.80;;
68951;SDS011;56000;51.146;17.112;2023-04-01T04:05:32;4.20;;;2.70;;
68951;SDS011;56000;51.146;17.112;2023-04-01T04:08:05;9.20;;;3.30;;
68951;SDS011;56000;51.146;17.112;2023-04-01T04:10:38;5.80;;;3.80;;
68951;SDS011;56000;51.146;17.112;2023-04-01T04:13:11;5.00;;;3.20;;
68951;SDS011;56000;51.146;17.112;2023-04-01T04:15:49;8.60;;;3.60;;
68951;SDS011;56000;51.146;17.112;2023-04-01T04:18:23;7.50;;;3.60;;
68951;SDS011;56000;51.146;17.112;2023-04-01T04:20:56;7.90;;;3.40;;
68951;SDS011;56000;51.146;17.112;2023-04-01T04:23:29;7.00;;;3.50;;
68951;SDS011;56000;51.146;17.112;2023-04-01T04:26:05;5.30;;;3.20;;
68951;SDS011;56000;51.146;17.112;2023-04-01T04:28:39;6.00;;;3.80;;
68951;SDS011;56000;51.146;17.112;2023-04-01T04:31:13;5.10;;;2.90;;
68951;SDS011;56000;51.146;17.112;2023-04-01T04:33:52;6.40;;;3.30;;
68951;SDS011;56000;51.146;17.112;2023-04-01T04:36:25;11.20;;;3.50;;
68951;SDS011;56000;51.146;17.112;2023-04-01T04:38:58;5.10;;;3.10;;
68951;SDS011;56000;51.146;17.112;2023-04-01T04:41:36;4.00;;;2.60;;
68951;SDS011;56000;51.146;17.112;2023-04-01T04:44:09;6.40;;;3.70;;
68951;SDS011;56000;51.146;17.112;2023-04-01T04:46:43;6.30;;;3.10;;
68951;SDS011;56000;51.146;17.112;2023-04-01T04:49:17;10.10;;;3.90;;
68951;SDS011;56000;51.146;17.112;2023-04-01T04:51:50;5.10;;;2.80;;
68951;SDS011;56000;51.146;17.112;2023-04-01T04:54:25;7.60;;;3.50;;
68951;SDS011;56000;51.146;17.112;2023-04-01T04:57:00;11.20;;;3.90;;
68951;SDS011;56000;51.146;17.112;2023-04-01T04:59:36;11.70;;;3.70;;
68951;SDS011;56000;51.146;17.112;2023-04-01T05:02:15;8.10;;;3.80;;
68951;SDS011;56000;51.146;17.112;2023-04-01T05:04:49;5.60;;;3.50;;
68951;SDS011;56000;51.146;17.112;2023-04-01T05:07:22;8.70;;;3.40;;
68951;SDS011;56000;51.146;17.112;2023-04-01T05:09:55;7.10;;;3.70;;
68951;SDS011;56000;51.146;17.112;2023-04-01T05:12:29;7.00;;;3.50;;
68951;SDS011;56000;51.146;17.112;2023-04-01T05:15:07;6.90;;;3.70;;
68951;SDS011;56000;51.146;17.112;2023-04-01T05:17:42;7.50;;;3.40;;
68951;SDS011;56000;51.146;17.112;2023-04-01T05:20:16;6.70;;;2.90;;
68951;SDS011;56000;51.146;17.112;2023-04-01T05:22:50;7.00;;;3.10;;
68951;SDS011;56000;51.146;17.112;2023-04-01T05:25:26;7.30;;;3.10;;
68951;SDS011;56000;51.146;17.112;2023-04-01T05:28:00;10.90;;;5.30;;
68951;SDS011;56000;51.146;17.112;2023-04-01T05:30:34;10.10;;;4.30;;
68951;SDS011;56000;51.146;17.112;2023-04-01T05:33:22;7.20;;;4.20;;
68951;SDS011;56000;51.146;17.112;2023-04-01T05:35:56;10.50;;;5.30;;
68951;SDS011;56000;51.146;17.112;2023-04-01T05:38:36;7.80;;;5.20;;
68951;SDS011;56000;51.146;17.112;2023-04-01T05:41:11;9.30;;;5.60;;
68951;SDS011;56000;51.146;17.112;2023-04-01T05:43:47;14.20;;;8.10;;
68951;SDS011;56000;51.146;17.112;2023-04-01T05:46:58;16.70;;;9.90;;
68951;SDS011;56000;51.146;17.112;2023-04-01T05:49:32;7.30;;;4.00;;
68951;SDS011;56000;51.146;17.112;2023-04-01T05:52:06;9.90;;;4.40;;
68951;SDS011;56000;51.146;17.112;2023-04-01T05:54:39;7.60;;;4.30;;
68951;SDS011;56000;51.146;17.112;2023-04-01T05:57:12;7.00;;;3.20;;
68951;SDS011;56000;51.146;17.112;2023-04-01T05:59:46;3.80;;;2.60;;
68951;SDS011;56000;51.146;17.112;2023-04-01T06:02:19;12.20;;;5.80;;
68951;SDS011;56000;51.146;17.112;2023-04-01T06:04:53;11.10;;;6.60;;
68951;SDS011;56000;51.146;17.112;2023-04-01T06:07:33;8.20;;;3.50;;
68951;SDS011;56000;51.146;17.112;2023-04-01T06:10:12;7.70;;;3.60;;
68951;SDS011;56000;51.146;17.112;2023-04-01T06:12:52;14.80;;;9.20;;
68951;SDS011;56000;51.146;17.112;2023-04-01T06:15:36;9.10;;;3.70;;
68951;SDS011;56000;51.146;17.112;2023-04-01T06:18:41;8.60;;;3.60;;
68951;SDS011;56000;51.146;17.112;2023-04-01T06:21:50;7.40;;;3.30;;
68951;SDS011;56000;51.146;17.112;2023-04-01T06:25:17;5.80;;;3.50;;
68951;SDS011;56000;51.146;17.112;2023-04-01T06:28:30;9.50;;;4.40;;
68951;SDS011;56000;51.146;17.112;2023-04-01T06:31:30;8.30;;;3.80;;
68951;SDS011;56000;51.146;17.112;2023-04-01T06:34:23;7.80;;;4.00;;
68951;SDS011;56000;51.146;17.112;2023-04-01T06:37:19;8.80;;;3.70;;
68951;SDS011;56000;51.146;17.112;2023-04-01T06:40:33;5.60;;;3.60;;
68951;SDS011;56000;51.146;17.112;2023-04-01T06:43:16;8.50;;;3.40;;
68951;SDS011;56000;51.146;17.112;2023-04-01T06:46:15;7.70;;;3.10;;
68951;SDS011;56000;51.146;17.112;2023-04-01T06:49:41;7.90;;;3.90;;
68951;SDS011;56000;51.146;17.112;2023-04-01T06:52:45;7.60;;;3.10;;
68951;SDS011;56000;51.146;17.112;2023-04-01T06:55:46;5.40;;;3.00;;
68951;SDS011;56000;51.146;17.112;2023-04-01T06:58:37;10.10;;;3.50;;
68951;SDS011;56000;51.146;17.112;2023-04-01T07:01:16;9.70;;;3.50;;
68951;SDS011;56000;51.146;17.112;2023-04-01T07:03:55;8.70;;;3.50;;
68951;SDS011;56000;51.146;17.112;2023-04-01T07:06:35;6.90;;;3.60;;
68951;SDS011;56000;51.146;17.112;2023-04-01T07:09:13;8.30;;;3.60;;
68951;SDS011;56000;51.146;17.112;2023-04-01T07:12:18;6.10;;;3.50;;
68951;SDS011;56000;51.146;17.112;2023-04-01T07:15:22;6.30;;;3.60;;
68951;SDS011;56000;51.146;17.112;2023-04-01T07:18:02;7.00;;;3.90;;
68951;SDS011;56000;51.146;17.112;2023-04-01T07:20:38;4.80;;;3.00;;
68951;SDS011;56000;51.146;17.112;2023-04-01T07:23:20;5.60;;;3.60;;
68951;SDS011;56000;51.146;17.112;2023-04-01T07:26:19;7.10;;;3.80;;
68951;SDS011;56000;51.146;17.112;2023-04-01T07:28:57;6.90;;;4.30;;
68951;SDS011;56000;51.146;17.112;2023-04-01T07:34:58;7.50;;;4.20;;
68951;SDS011;56000;51.146;17.112;2023-04-01T07:37:45;5.10;;;3.40;;
68951;SDS011;56000;51.146;17.112;2023-04-01T07:40:30;6.50;;;3.80;;
68951;SDS011;56000;51.146;17.112;2023-04-01T07:43:22;5.90;;;3.90;;
68951;SDS011;56000;51.146;17.112;2023-04-01T07:46:21;7.70;;;3.90;;
68951;SDS011;56000;51.146;17.112;2023-04-01T07:49:06;7.30;;;3.70;;
68951;SDS011;56000;51.146;17.112;2023-04-01T07:51:48;7.30;;;3.50;;
68951;SDS011;56000;51.146;17.112;2023-04-01T07:54:31;6.40;;;3.70;;
68951;SDS011;56000;51.146;17.112;2023-04-01T07:57:14;5.20;;;3.00;;
68951;SDS011;56000;51.146;17.112;2023-04-01T07:59:59;4.70;;;3.20;;
68951;SDS011;56000;51.146;17.112;2023-04-01T08:02:51;5.70;;;2.70;;
68951;SDS011;56000;51.146;17.112;2023-04-01T08:05:39;6.50;;;3.30;;
68951;SDS011;56000;51.146;17.112;2023-04-01T08:08:23;5.60;;;3.30;;
68951;SDS011;56000;51.146;17.112;2023-04-01T08:11:30;7.10;;;3.00;;
68951;SDS011;56000;51.146;17.112;2023-04-01T08:14:32;7.50;;;3.00;;
68951;SDS011;56000;51.146;17.112;2023-04-01T08:17:34;6.70;;;2.80;;
68951;SDS011;56000;51.146;17.112;2023-04-01T08:20:22;8.10;;;2.80;;
68951;SDS011;56000;51.146;17.112;2023-04-01T08:23:04;5.70;;;2.40;;
68951;SDS011;56000;51.146;17.112;2023-04-01T08:25:46;6.90;;;2.80;;
68951;SDS011;56000;51.146;17.112;2023-04-01T08:28:29;6.40;;;2.70;;
68951;SDS011;56000;51.146;17.112;2023-04-01T08:31:08;4.10;;;3.00;;
68951;SDS011;56000;51.146;17.112;2023-04-01T08:33:46;6.20;;;3.00;;
68951;SDS011;56000;51.146;17.112;2023-04-01T08:36:21;5.90;;;3.40;;
68951;SDS011;56000;51.146;17.112;2023-04-01T08:39:11;10.50;;;3.10;;
68951;SDS011;56000;51.146;17.112;2023-04-01T08:42:07;4.90;;;2.60;;
68951;SDS011;56000;51.146;17.112;2023-04-01T08:48:55;8.10;;;3.30;;
68951;SDS011;56000;51.146;17.112;2023-04-01T08:52:09;4.30;;;2.70;;
68951;SDS011;56000;51.146;17.112;2023-04-01T08:55:19;6.70;;;3.00;;
68951;SDS011;56000;51.146;17.112;2023-04-01T09:02:02;8.80;;;3.60;;
68951;SDS011;56000;51.146;17.112;2023-04-01T09:05:28;6.40;;;2.80;;
68951;SDS011;56000;51.146;17.112;2023-04-01T09:08:33;7.60;;;2.30;;
68951;SDS011;56000;51.146;17.112;2023-04-01T09:11:28;10.50;;;2.60;;
68951;SDS011;56000;51.146;17.112;2023-04-01T09:14:48;4.60;;;2.70;;
68951;SDS011;56000;51.146;17.112;2023-04-01T09:21:01;15.40;;;5.30;;
68951;SDS011;56000;51.146;17.112;2023-04-01T09:24:13;10.70;;;4.40;;
68951;SDS011;56000;51.146;17.112;2023-04-01T09:27:05;27.60;;;13.10;;
68951;SDS011;56000;51.146;17.112;2023-04-01T09:30:17;6.20;;;3.00;;
68951;SDS011;56000;51.146;17.112;2023-04-01T09:36:33;6.70;;;2.50;;
68951;SDS011;56000;51.146;17.112;2023-04-01T09:39:36;4.80;;;2.40;;
68951;SDS011;56000;51.146;17.112;2023-04-01T09:42:32;5.80;;;3.10;;
68951;SDS011;56000;51.146;17.112;2023-04-01T09:45:46;4.40;;;2.50;;
68951;SDS011;56000;51.146;17.112;2023-04-01T09:48:42;5.40;;;3.00;;
68951;SDS011;56000;51.146;17.112;2023-04-01T09:51:36;7.60;;;3.10;;
68951;SDS011;56000;51.146;17.112;2023-04-01T09:54:23;12.00;;;5.60;;
68951;SDS011;56000;51.146;17.112;2023-04-01T10:01:27;6.70;;;3.80;;
68951;SDS011;56000;51.146;17.112;2023-04-01T10:05:11;7.20;;;4.30;;
68951;SDS011;56000;51.146;17.112;2023-04-01T10:12:15;4.40;;;2.00;;
68951;SDS011;56000;51.146;17.112;2023-04-01T10:18:44;5.00;;;2.00;;
68951;SDS011;56000;51.146;17.112;2023-04-01T10:25:26;3.70;;;1.50;;
68951;SDS011;56000;51.146;17.112;2023-04-01T10:28:45;5.40;;;2.30;;
68951;SDS011;56000;51.146;17.112;2023-04-01T10:42:00;2.10;;;1.90;;
68951;SDS011;56000;51.146;17.112;2023-04-01T10:45:37;2.20;;;1.60;;
68951;SDS011;56000;51.146;17.112;2023-04-01T10:49:09;3.30;;;1.80;;
68951;SDS011;56000;51.146;17.112;2023-04-01T11:03:37;3.40;;;2.80;;
68951;SDS011;56000;51.146;17.112;2023-04-01T11:07:23;3.20;;;2.40;;
68951;SDS011;56000;51.146;17.112;2023-04-01T11:10:57;5.10;;;3.60;;
68951;SDS011;56000;51.146;17.112;2023-04-01T11:21:18;15.60;;;6.10;;
68951;SDS011;56000;51.146;17.112;2023-04-01T11:24:44;6.80;;;3.60;;
68951;SDS011;56000;51.146;17.112;2023-04-01T11:28:18;4.10;;;2.40;;
68951;SDS011;56000;51.146;17.112;2023-04-01T11:31:29;7.00;;;3.70;;
68951;SDS011;56000;51.146;17.112;2023-04-01T11:34:32;8.60;;;4.20;;
68951;SDS011;56000;51.146;17.112;2023-04-01T11:37:22;10.90;;;6.60;;
68951;SDS011;56000;51.146;17.112;2023-04-01T11:40:40;18.90;;;10.60;;
68951;SDS011;56000;51.146;17.112;2023-04-01T11:47:22;8.20;;;4.80;;
68951;SDS011;56000;51.146;17.112;2023-04-01T11:50:22;9.60;;;5.50;;
68951;SDS011;56000;51.146;17.112;2023-04-01T11:53:09;5.70;;;2.40;;
68951;SDS011;56000;51.146;17.112;2023-04-01T11:55:55;5.80;;;3.90;;
68951;SDS011;56000;51.146;17.112;2023-04-01T11:58:54;8.00;;;4.60;;
68951;SDS011;56000;51.146;17.112;2023-04-01T12:01:46;11.50;;;6.90;;
68951;SDS011;56000;51.146;17.112;2023-04-01T12:07:36;6.20;;;3.00;;
68951;SDS011;56000;51.146;17.112;2023-04-01T12:10:24;9.70;;;3.90;;
68951;SDS011;56000;51.146;17.112;2023-04-01T12:13:07;3.10;;;1.90;;
68951;SDS011;56000;51.146;17.112;2023-04-01T12:16:05;3.70;;;1.70;;
68951;SDS011;56000;51.146;17.112;2023-04-01T12:18:50;6.60;;;3.50;;
68951;SDS011;56000;51.146;17.112;2023-04-01T12:21:32;4.60;;;2.80;;
68951;SDS011;56000;51.146;17.112;2023-04-01T12:24:46;3.70;;;2.50;;
68951;SDS011;56000;51.146;17.112;2023-04-01T12:27:33;5.60;;;3.20;;
68951;SDS011;56000;51.146;17.112;2023-04-01T12:30:31;2.50;;;1.80;;
68951;SDS011;56000;51.146;17.112;2023-04-01T12:33:27;3.90;;;1.70;;
68951;SDS011;56000;51.146;17.112;2023-04-01T12:36:19;2.60;;;1.90;;
68951;SDS011;56000;51.146;17.112;2023-04-01T12:42:02;2.10;;;1.70;;
68951;SDS011;56000;51.146;17.112;2023-04-01T12:44:56;1.60;;;1.40;;
68951;SDS011;56000;51.146;17.112;2023-04-01T12:48:13;3.20;;;2.40;;
68951;SDS011;56000;51.146;17.112;2023-04-01T12:51:21;3.90;;;2.20;;
68951;SDS011;56000;51.146;17.112;2023-04-01T12:57:43;2.60;;;1.80;;
68951;SDS011;56000;51.146;17.112;2023-04-01T13:00:33;2.60;;;1.70;;
68951;SDS011;56000;51.146;17.112;2023-04-01T13:03:25;2.00;;;1.70;;
68951;SDS011;56000;51.146;17.112;2023-04-01T13:12:18;8.50;;;6.00;;
68951;SDS011;56000;51.146;17.112;2023-04-01T13:15:14;11.80;;;7.50;;
68951;SDS011;56000;51.146;17.112;2023-04-01T13:18:01;10.60;;;4.70;;
68951;SDS011;56000;51.146;17.112;2023-04-01T13:20:52;4.30;;;2.20;;
68951;SDS011;56000;51.146;17.112;2023-04-01T13:23:38;15.70;;;6.90;;
68951;SDS011;56000;51.146;17.112;2023-04-01T13:26:24;14.10;;;5.70;;
68951;SDS011;56000;51.146;17.112;2023-04-01T13:29:04;12.30;;;5.20;;
68951;SDS011;56000;51.146;17.112;2023-04-01T13:31:52;6.20;;;3.50;;
68951;SDS011;56000;51.146;17.112;2023-04-01T13:34:47;3.70;;;2.20;;
68951;SDS011;56000;51.146;17.112;2023-04-01T13:37:39;13.30;;;7.00;;
68951;SDS011;56000;51.146;17.112;2023-04-01T13:40:38;5.50;;;3.40;;
68951;SDS011;56000;51.146;17.112;2023-04-01T13:43:33;3.60;;;2.30;;
68951;SDS011;56000;51.146;17.112;2023-04-01T13:46:19;3.60;;;2.20;;
68951;SDS011;56000;51.146;17.112;2023-04-01T13:52:55;2.20;;;1.50;;
68951;SDS011;56000;51.146;17.112;2023-04-01T13:56:07;4.30;;;2.00;;
68951;SDS011;56000;51.146;17.112;2023-04-01T13:59:07;2.90;;;2.10;;
68951;SDS011;56000;51.146;17.112;2023-04-01T14:01:56;3.50;;;2.20;;
68951;SDS011;56000;51.146;17.112;2023-04-01T14:04:44;7.40;;;3.00;;
68951;SDS011;56000;51.146;17.112;2023-04-01T14:07:47;3.10;;;2.00;;
68951;SDS011;56000;51.146;17.112;2023-04-01T14:10:31;4.60;;;2.10;;
68951;SDS011;56000;51.146;17.112;2023-04-01T14:13:12;5.90;;;2.20;;
68951;SDS011;56000;51.146;17.112;2023-04-01T14:16:02;4.70;;;2.50;;
68951;SDS011;56000;51.146;17.112;2023-04-01T14:19:01;3.90;;;2.50;;
68951;SDS011;56000;51.146;17.112;2023-04-01T14:21:42;4.70;;;2.20;;
68951;SDS011;56000;51.146;17.112;2023-04-01T14:24:40;5.30;;;2.60;;
68951;SDS011;56000;51.146;17.112;2023-04-01T14:27:34;10.70;;;4.40;;
68951;SDS011;56000;51.146;17.112;2023-04-01T14:33:28;8.10;;;4.40;;
68951;SDS011;56000;51.146;17.112;2023-04-01T14:39:43;6.00;;;3.70;;
68951;SDS011;56000;51.146;17.112;2023-04-01T14:42:41;7.00;;;4.30;;
68951;SDS011;56000;51.146;17.112;2023-04-01T14:45:42;5.00;;;3.10;;
68951;SDS011;56000;51.146;17.112;2023-04-01T14:48:27;4.60;;;2.90;;
68951;SDS011;56000;51.146;17.112;2023-04-01T14:51:10;3.10;;;2.30;;
68951;SDS011;56000;51.146;17.112;2023-04-01T14:53:58;4.70;;;3.20;;
68951;SDS011;56000;51.146;17.112;2023-04-01T14:56:40;6.50;;;4.00;;
68951;SDS011;56000;51.146;17.112;2023-04-01T14:59:27;5.20;;;3.50;;
68951;SDS011;56000;51.146;17.112;2023-04-01T15:02:03;5.00;;;3.30;;
68951;SDS011;56000;51.146;17.112;2023-04-01T15:04:56;5.10;;;3.20;;
68951;SDS011;56000;51.146;17.112;2023-04-01T15:07:57;5.20;;;2.50;;
68951;SDS011;56000;51.146;17.112;2023-04-01T15:13:56;3.00;;;2.40;;
68951;SDS011;56000;51.146;17.112;2023-04-01T15:16:44;3.90;;;2.20;;
68951;SDS011;56000;51.146;17.112;2023-04-01T15:19:34;6.20;;;2.80;;
68951;SDS011;56000;51.146;17.112;2023-04-01T15:22:32;6.70;;;3.50;;
68951;SDS011;56000;51.146;17.112;2023-04-01T15:25:30;7.90;;;3.40;;
68951;SDS011;56000;51.146;17.112;2023-04-01T15:28:19;6.90;;;4.40;;
68951;SDS011;56000;51.146;17.112;2023-04-01T15:31:02;8.70;;;5.20;;
68951;SDS011;56000;51.146;17.112;2023-04-01T15:34:11;8.00;;;4.70;;
68951;SDS011;56000;51.146;17.112;2023-04-01T15:37:08;6.50;;;4.80;;
68951;SDS011;56000;51.146;17.112;2023-04-01T15:42:42;6.20;;;4.50;;
68951;SDS011;56000;51.146;17.112;2023-04-01T15:45:41;10.50;;;6.30;;
68951;SDS011;56000;51.146;17.112;2023-04-01T15:48:33;11.00;;;7.00;;
68951;SDS011;56000;51.146;17.112;2023-04-01T15:51:26;9.30;;;6.40;;
68951;SDS011;56000;51.146;17.112;2023-04-01T15:57:43;10.60;;;7.50;;
68951;SDS011;56000;51.146;17.112;2023-04-01T16:00:27;9.10;;;6.60;;
68951;SDS011;56000;51.146;17.112;2023-04-01T16:03:13;11.60;;;7.20;;
68951;SDS011;56000;51.146;17.112;2023-04-01T16:06:07;12.20;;;7.60;;
68951;SDS011;56000;51.146;17.112;2023-04-01T16:08:54;10.90;;;6.80;;
68951;SDS011;56000;51.146;17.112;2023-04-01T16:11:45;14.50;;;8.10;;
68951;SDS011;56000;51.146;17.112;2023-04-01T16:14:31;12.60;;;7.90;;
68951;SDS011;56000;51.146;17.112;2023-04-01T16:17:21;10.90;;;6.20;;
68951;SDS011;56000;51.146;17.112;2023-04-01T16:20:06;11.50;;;8.20;;
68951;SDS011;56000;51.146;17.112;2023-04-01T16:22:55;14.00;;;8.10;;
68951;SDS011;56000;51.146;17.112;2023-04-01T16:25:36;12.60;;;7.90;;
68951;SDS011;56000;51.146;17.112;2023-04-01T16:28:21;18.60;;;10.90;;
68951;SDS011;56000;51.146;17.112;2023-04-01T16:31:03;33.50;;;15.20;;
68951;SDS011;56000;51.146;17.112;2023-04-01T16:33:46;29.70;;;16.10;;
68951;SDS011;56000;51.146;17.112;2023-04-01T16:36:28;24.20;;;13.70;;
68951;SDS011;56000;51.146;17.112;2023-04-01T16:39:21;19.50;;;11.70;;
68951;SDS011;56000;51.146;17.112;2023-04-01T16:42:19;22.60;;;10.90;;
68951;SDS011;56000;51.146;17.112;2023-04-01T16:45:00;18.40;;;11.10;;
68951;SDS011;56000;51.146;17.112;2023-04-01T16:47:48;22.10;;;13.40;;
68951;SDS011;56000;51.146;17.112;2023-04-01T16:50:26;25.70;;;14.30;;
68951;SDS011;56000;51.146;17.112;2023-04-01T16:53:08;18.90;;;12.10;;
68951;SDS011;56000;51.146;17.112;2023-04-01T16:55:50;15.00;;;9.20;;
68951;SDS011;56000;51.146;17.112;2023-04-01T16:58:35;16.50;;;10.50;;
68951;SDS011;56000;51.146;17.112;2023-04-01T17:01:14;16.60;;;10.20;;
68951;SDS011;56000;51.146;17.112;2023-04-01T17:03:57;12.60;;;8.70;;
68951;SDS011;56000;51.146;17.112;2023-04-01T17:06:39;13.80;;;9.40;;
68951;SDS011;56000;51.146;17.112;2023-04-01T17:09:27;18.00;;;9.30;;
68951;SDS011;56000;51.146;17.112;2023-04-01T17:12:13;15.70;;;10.70;;
68951;SDS011;56000;51.146;17.112;2023-04-01T17:14:59;17.50;;;11.30;;
68951;SDS011;56000;51.146;17.112;2023-04-01T17:17:45;18.70;;;11.90;;
68951;SDS011;56000;51.146;17.112;2023-04-01T17:20:35;18.30;;;11.30;;
68951;SDS011;56000;51.146;17.112;2023-04-01T17:23:23;21.70;;;13.80;;
68951;SDS011;56000;51.146;17.112;2023-04-01T17:26:16;21.30;;;12.70;;
68951;SDS011;56000;51.146;17.112;2023-04-01T17:29:01;20.40;;;12.80;;
68951;SDS011;56000;51.146;17.112;2023-04-01T17:31:49;20.70;;;13.00;;
68951;SDS011;56000;51.146;17.112;2023-04-01T17:34:48;20.80;;;13.00;;
68951;SDS011;56000;51.146;17.112;2023-04-01T17:37:41;24.80;;;13.20;;
68951;SDS011;56000;51.146;17.112;2023-04-01T17:43:12;24.60;;;13.00;;
68951;SDS011;56000;51.146;17.112;2023-04-01T17:45:56;27.60;;;15.20;;
68951;SDS011;56000;51.146;17.112;2023-04-01T17:48:41;25.60;;;15.50;;
68951;SDS011;56000;51.146;17.112;2023-04-01T17:51:25;27.50;;;17.30;;
68951;SDS011;56000;51.146;17.112;2023-04-01T17:54:15;25.70;;;15.90;;
68951;SDS011;56000;51.146;17.112;2023-04-01T17:57:02;27.00;;;16.40;;
68951;SDS011;56000;51.146;17.112;2023-04-01T17:59:59;28.90;;;18.40;;
68951;SDS011;56000;51.146;17.112;2023-04-01T18:02:45;23.30;;;16.10;;
68951;SDS011;56000;51.146;17.112;2023-04-01T18:05:40;26.10;;;16.10;;
68951;SDS011;56000;51.146;17.112;2023-04-01T18:08:34;31.20;;;17.30;;
68951;SDS011;56000;51.146;17.112;2023-04-01T18:11:19;30.50;;;17.90;;
68951;SDS011;56000;51.146;17.112;2023-04-01T18:14:29;25.00;;;15.50;;
68951;SDS011;56000;51.146;17.112;2023-04-01T18:17:33;33.00;;;19.30;;